Time;durP1;ratioP1;P1;durP2;ratioP2;P2;SDS_P1;SDS_P2;PMS_P1;PMS_P2;Temp;Humidity;BMP_temperature;BMP_pressure;BME280_temperature;BME280_humidity;BME280_pressure;Samples;Min_cycle;Max_cycle;Signal;HPM_P1;HPM_P2
2021/06/09 00:00:49;;;;;;;3.40;3.10;;;;;;;;;;5013244;28;20829;-62
2021/06/09 00:03:16;;;;;;;3.17;2.90;;;;;;;;;;5013240;28;20442;-62
2021/06/09 00:05:43;;;;;;;3.53;3.17;;;;;;;;;;5013592;28;20581;-62
2021/06/09 00:08:10;;;;;;;2.70;2.50;;;;;;;;;;5013725;28;20450;-62
2021/06/09 00:10:36;;;;;;;3.77;3.47;;;;;;;;;;5090658;22;20518;-59
2021/06/09 00:13:03;;;;;;;4.40;2.80;;;;;;;;;;5113563;28;20484;-59
2021/06/09 00:15:31;;;;;;;4.07;2.90;;;;;;;;;;5113784;28;20808;-60
2021/06/09 00:17:59;;;;;;;2.87;2.63;;;;;;;;;;5113793;28;20445;-60
2021/06/09 00:20:27;;;;;;;2.60;2.40;;;;;;;;;;5113236;28;20840;-58
2021/06/09 00:22:55;;;;;;;3.20;2.90;;;;;;;;;;5113370;28;20448;-61
2021/06/09 00:25:22;;;;;;;3.10;2.80;;;;;;;;;;5113537;28;20453;-60
2021/06/09 00:27:49;;;;;;;3.17;2.20;;;;;;;;;;5113194;28;20437;-60
2021/06/09 00:30:17;;;;;;;4.13;2.30;;;;;;;;;;5113028;28;20466;-60
2021/06/09 00:32:44;;;;;;;3.23;2.60;;;;;;;;;;5113397;28;20484;-60
2021/06/09 00:35:13;;;;;;;3.23;2.53;;;;;;;;;;5113260;28;20446;-60
2021/06/09 00:37:40;;;;;;;3.13;2.83;;;;;;;;;;5113707;28;20494;-60
2021/06/09 00:40:09;;;;;;;3.40;2.80;;;;;;;;;;5113406;28;20465;-60
2021/06/09 00:42:36;;;;;;;5.17;2.70;;;;;;;;;;5113687;28;20817;-61
2021/06/09 00:45:03;;;;;;;3.00;2.27;;;;;;;;;;5113271;28;20932;-60
2021/06/09 00:47:30;;;;;;;3.60;3.30;;;;;;;;;;5113415;28;20445;-60
2021/06/09 00:49:56;;;;;;;3.20;2.90;;;;;;;;;;5113001;28;20976;-60
2021/06/09 00:52:26;;;;;;;2.47;2.23;;;;;;;;;;5113256;28;20473;-60
2021/06/09 00:54:53;;;;;;;2.80;2.60;;;;;;;;;;5112952;28;21017;-60
2021/06/09 00:57:20;;;;;;;2.70;2.50;;;;;;;;;;5113243;28;20437;-60
2021/06/09 00:59:47;;;;;;;2.87;2.67;;;;;;;;;;5114849;28;20457;-60
2021/06/09 01:02:14;;;;;;;4.83;2.70;;;;;;;;;;5117615;28;20437;-60
2021/06/09 01:04:41;;;;;;;4.23;2.80;;;;;;;;;;5117697;28;20440;-60
2021/06/09 01:07:09;;;;;;;2.90;2.60;;;;;;;;;;5116733;28;20441;-60
2021/06/09 01:09:37;;;;;;;2.83;2.47;;;;;;;;;;5116424;28;20446;-60
2021/06/09 01:12:04;;;;;;;2.93;2.40;;;;;;;;;;5116906;28;20436;-60
2021/06/09 01:14:31;;;;;;;2.43;2.23;;;;;;;;;;5116389;28;21022;-61
2021/06/09 01:16:58;;;;;;;4.07;2.53;;;;;;;;;;5116314;28;20484;-60
2021/06/09 01:19:25;;;;;;;2.70;2.50;;;;;;;;;;5116497;28;20441;-61
2021/06/09 01:21:53;;;;;;;4.30;3.97;;;;;;;;;;5116465;28;20502;-61
2021/06/09 01:24:20;;;;;;;3.80;3.30;;;;;;;;;;5116115;28;20498;-59
2021/06/09 01:26:46;;;;;;;3.93;2.97;;;;;;;;;;5116389;28;20465;-60
2021/06/09 01:29:13;;;;;;;3.90;3.47;;;;;;;;;;5116015;28;20790;-60
2021/06/09 01:31:40;;;;;;;4.17;2.53;;;;;;;;;;5115920;28;20979;-60
2021/06/09 01:34:07;;;;;;;3.00;2.67;;;;;;;;;;5116141;28;20473;-60
2021/06/09 01:36:35;;;;;;;2.40;2.20;;;;;;;;;;5115912;28;20466;-60
2021/06/09 01:39:08;;;;;;;3.07;2.40;;;;;;;;;;5116187;28;20448;-59
2021/06/09 01:41:35;;;;;;;3.13;2.83;;;;;;;;;;5116168;28;20470;-61
2021/06/09 01:44:02;;;;;;;3.33;2.60;;;;;;;;;;5116062;28;20437;-60
2021/06/09 01:46:29;;;;;;;5.70;2.53;;;;;;;;;;5115815;28;20467;-61
2021/06/09 01:48:55;;;;;;;2.60;2.30;;;;;;;;;;5116018;28;20445;-60
2021/06/09 01:51:22;;;;;;;2.83;2.63;;;;;;;;;;5115566;28;20465;-60
2021/06/09 01:53:49;;;;;;;2.30;2.07;;;;;;;;;;5115434;28;20469;-60
2021/06/09 01:56:17;;;;;;;2.00;1.90;;;;;;;;;;5115518;28;20441;-60
2021/06/09 01:58:44;;;;;;;2.70;2.37;;;;;;;;;;5115810;28;20437;-60
2021/06/09 02:01:11;;;;;;;2.87;2.40;;;;;;;;;;5115721;28;20491;-60
2021/06/09 02:03:38;;;;;;;3.60;2.23;;;;;;;;;;5115339;28;20452;-60
2021/06/09 02:06:05;;;;;;;4.53;2.30;;;;;;;;;;5115634;28;20445;-61
2021/06/09 02:08:31;;;;;;;3.47;2.40;;;;;;;;;;5115582;28;20498;-60
2021/06/09 02:10:58;;;;;;;2.57;2.37;;;;;;;;;;5115032;28;21015;-60
2021/06/09 02:13:27;;;;;;;3.50;2.37;;;;;;;;;;5115369;28;20492;-60
2021/06/09 02:15:56;;;;;;;2.70;2.50;;;;;;;;;;5115409;28;20816;-60
2021/06/09 02:18:23;;;;;;;4.40;2.63;;;;;;;;;;5115356;28;20590;-60
2021/06/09 02:20:53;;;;;;;3.67;2.57;;;;;;;;;;5114930;28;20471;-60
2021/06/09 02:23:20;;;;;;;2.43;2.23;;;;;;;;;;5115339;28;20437;-60
2021/06/09 02:25:49;;;;;;;4.27;2.80;;;;;;;;;;5115131;28;20499;-61
2021/06/09 02:28:16;;;;;;;3.63;2.30;;;;;;;;;;5114812;28;20500;-60
2021/06/09 02:30:44;;;;;;;4.30;2.50;;;;;;;;;;5114731;28;20469;-60
2021/06/09 02:33:11;;;;;;;3.47;2.53;;;;;;;;;;5114641;28;21036;-60
2021/06/09 02:35:39;;;;;;;3.83;2.17;;;;;;;;;;5114706;28;20969;-60
2021/06/09 02:38:06;;;;;;;4.53;2.63;;;;;;;;;;5114992;28;20854;-60
2021/06/09 02:40:33;;;;;;;2.73;2.53;;;;;;;;;;5114886;28;20462;-60
2021/06/09 02:43:00;;;;;;;2.63;2.30;;;;;;;;;;5114578;28;20849;-60
2021/06/09 02:45:27;;;;;;;2.57;2.37;;;;;;;;;;5114809;28;20448;-61
2021/06/09 02:47:57;;;;;;;3.50;3.20;;;;;;;;;;5114806;28;20437;-61
2021/06/09 02:50:24;;;;;;;6.97;2.53;;;;;;;;;;5114308;28;20988;-60
2021/06/09 02:52:56;;;;;;;3.30;2.93;;;;;;;;;;5114646;28;21044;-60
2021/06/09 02:55:27;;;;;;;3.57;3.07;;;;;;;;;;5114769;28;20426;-60
2021/06/09 02:57:58;;;;;;;3.00;2.47;;;;;;;;;;5114764;28;20748;-60
2021/06/09 03:00:26;;;;;;;4.73;2.70;;;;;;;;;;5114558;28;20527;-60
2021/06/09 03:02:58;;;;;;;3.73;2.63;;;;;;;;;;5114381;28;20441;-60
2021/06/09 03:05:27;;;;;;;3.37;2.50;;;;;;;;;;5114494;28;20426;-60
2021/06/09 03:08:00;;;;;;;3.47;3.17;;;;;;;;;;5114335;28;20486;-60
2021/06/09 03:10:34;;;;;;;3.87;2.93;;;;;;;;;;5114039;28;20588;-60
2021/06/09 03:13:05;;;;;;;4.10;2.83;;;;;;;;;;5114049;28;20964;-60
2021/06/09 03:15:36;;;;;;;4.60;3.70;;;;;;;;;;5114280;28;20430;-60
2021/06/09 03:18:05;;;;;;;3.13;2.93;;;;;;;;;;5114309;28;20426;-60
2021/06/09 03:20:37;;;;;;;3.80;3.30;;;;;;;;;;5114131;28;20552;-60
2021/06/09 03:23:07;;;;;;;2.80;2.60;;;;;;;;;;5113651;28;20949;-61
2021/06/09 03:25:39;;;;;;;3.43;3.10;;;;;;;;;;5114179;28;20446;-61
2021/06/09 03:28:16;;;;;;;3.97;2.73;;;;;;;;;;5114461;28;20429;-60
2021/06/09 03:30:44;;;;;;;4.10;3.17;;;;;;;;;;5114903;28;20453;-60
2021/06/09 03:33:13;;;;;;;4.37;2.80;;;;;;;;;;5113643;28;21056;-60
2021/06/09 03:35:44;;;;;;;3.97;2.90;;;;;;;;;;5113824;28;20932;-60
2021/06/09 03:38:13;;;;;;;3.30;2.43;;;;;;;;;;5113681;28;20793;-61
2021/06/09 03:40:41;;;;;;;3.50;2.53;;;;;;;;;;5113943;28;20465;-60
2021/06/09 03:43:09;;;;;;;3.00;2.70;;;;;;;;;;5113984;28;20789;-61
2021/06/09 03:45:39;;;;;;;6.60;3.43;;;;;;;;;;5113490;28;20955;-60
2021/06/09 03:48:07;;;;;;;3.90;3.30;;;;;;;;;;5114070;28;20430;-61
2021/06/09 03:50:34;;;;;;;3.07;2.73;;;;;;;;;;5113710;28;20465;-60
2021/06/09 03:53:03;;;;;;;4.60;3.00;;;;;;;;;;5113732;28;20476;-60
2021/06/09 03:55:30;;;;;;;6.00;2.63;;;;;;;;;;5113667;28;20448;-60
2021/06/09 03:57:58;;;;;;;5.17;3.30;;;;;;;;;;5113418;28;20806;-60
2021/06/09 04:00:25;;;;;;;3.10;2.80;;;;;;;;;;5113207;28;20552;-59
2021/06/09 04:02:52;;;;;;;6.70;2.83;;;;;;;;;;5113688;28;20514;-61
2021/06/09 04:08:13;;;;;;;6.20;2.90;;;;;;;;;;5165476;27;20520;-60
2021/06/09 04:10:41;;;;;;;7.93;3.47;;;;;;;;;;5131602;28;20453;-60
2021/06/09 04:13:08;;;;;;;4.00;3.53;;;;;;;;;;5131625;27;20445;-60
2021/06/09 04:15:35;;;;;;;5.80;3.20;;;;;;;;;;5131517;27;20490;-60
2021/06/09 04:18:02;;;;;;;4.50;3.67;;;;;;;;;;5131672;27;20510;-60
2021/06/09 04:20:30;;;;;;;4.10;3.00;;;;;;;;;;5131153;27;20987;-59
2021/06/09 04:22:57;;;;;;;7.77;3.90;;;;;;;;;;5131445;27;20443;-60
2021/06/09 04:25:25;;;;;;;5.17;3.93;;;;;;;;;;5131365;27;20441;-59
2021/06/09 04:27:53;;;;;;;7.10;4.03;;;;;;;;;;5131717;27;20554;-60
2021/06/09 04:30:21;;;;;;;5.90;3.60;;;;;;;;;;5130926;27;20461;-60
2021/06/09 04:32:48;;;;;;;4.27;3.30;;;;;;;;;;5131316;27;20489;-61
2021/06/09 04:35:15;;;;;;;3.43;3.17;;;;;;;;;;5131087;27;20483;-59
2021/06/09 04:37:42;;;;;;;4.43;2.83;;;;;;;;;;5131187;27;20497;-59
2021/06/09 04:40:15;;;;;;;6.37;3.73;;;;;;;;;;5130671;27;20971;-59
2021/06/09 04:42:43;;;;;;;3.97;2.90;;;;;;;;;;5130947;27;20436;-59
2021/06/09 04:45:11;;;;;;;4.77;3.33;;;;;;;;;;5130934;27;20443;-60
2021/06/09 04:47:38;;;;;;;3.40;3.10;;;;;;;;;;5130456;27;20472;-60
2021/06/09 04:50:05;;;;;;;9.83;3.93;;;;;;;;;;5130747;27;20829;-61
2021/06/09 04:52:32;;;;;;;10.60;3.40;;;;;;;;;;5130535;27;20936;-60
2021/06/09 04:54:59;;;;;;;5.00;3.80;;;;;;;;;;5130717;27;20441;-61
2021/06/09 04:57:26;;;;;;;6.70;3.63;;;;;;;;;;5130356;27;20808;-61
2021/06/09 04:59:54;;;;;;;6.47;3.70;;;;;;;;;;5130703;27;20460;-60
2021/06/09 05:02:21;;;;;;;5.37;3.83;;;;;;;;;;5130575;27;20474;-60
2021/06/09 05:04:48;;;;;;;6.67;3.93;;;;;;;;;;5130347;27;20444;-59
2021/06/09 05:07:14;;;;;;;6.23;4.40;;;;;;;;;;5129966;27;20571;-60
2021/06/09 05:09:41;;;;;;;6.40;4.00;;;;;;;;;;5129938;27;20971;-60
2021/06/09 05:12:14;;;;;;;4.20;3.70;;;;;;;;;;5130216;27;20437;-61
2021/06/09 05:14:45;;;;;;;4.20;3.80;;;;;;;;;;5129922;27;20436;-62
2021/06/09 05:17:13;;;;;;;4.63;4.10;;;;;;;;;;5130116;27;20436;-60
2021/06/09 05:19:41;;;;;;;8.83;3.93;;;;;;;;;;5115641;28;20461;-60
2021/06/09 05:22:11;;;;;;;7.63;3.90;;;;;;;;;;5116083;28;20449;-59
2021/06/09 05:24:39;;;;;;;6.67;4.70;;;;;;;;;;5116113;28;20502;-60
2021/06/09 05:27:06;;;;;;;5.83;3.60;;;;;;;;;;5115964;28;21010;-59
2021/06/09 05:29:33;;;;;;;3.60;3.27;;;;;;;;;;5115924;28;20936;-60
2021/06/09 05:32:01;;;;;;;4.23;3.70;;;;;;;;;;5116314;28;20445;-60
2021/06/09 05:34:29;;;;;;;7.27;3.93;;;;;;;;;;5116094;28;20498;-60
2021/06/09 05:36:57;;;;;;;4.57;3.53;;;;;;;;;;5116316;28;20433;-60
2021/06/09 05:39:24;;;;;;;5.47;3.90;;;;;;;;;;5115479;28;20972;-61
2021/06/09 05:41:51;;;;;;;10.57;3.40;;;;;;;;;;5115710;28;20460;-60
2021/06/09 05:44:18;;;;;;;4.70;3.43;;;;;;;;;;5115569;28;20453;-60
2021/06/09 05:46:46;;;;;;;5.50;3.50;;;;;;;;;;5115872;28;20476;-59
2021/06/09 05:49:19;;;;;;;4.17;3.67;;;;;;;;;;5115770;28;20449;-59
2021/06/09 05:51:49;;;;;;;8.10;3.50;;;;;;;;;;5115613;28;20434;-61
2021/06/09 05:54:15;;;;;;;5.70;3.80;;;;;;;;;;5115771;28;20507;-62
2021/06/09 05:56:42;;;;;;;5.63;4.20;;;;;;;;;;5115464;28;20434;-61
2021/06/09 05:59:10;;;;;;;6.73;3.60;;;;;;;;;;5115656;28;20446;-62
2021/06/09 06:01:37;;;;;;;8.70;3.77;;;;;;;;;;5115340;28;20463;-62
2021/06/09 06:04:04;;;;;;;9.90;4.10;;;;;;;;;;5115618;28;20447;-63
2021/06/09 06:06:31;;;;;;;6.30;4.27;;;;;;;;;;5115148;28;20479;-62
2021/06/09 06:08:59;;;;;;;6.37;4.07;;;;;;;;;;5115420;28;20452;-60
2021/06/09 06:11:26;;;;;;;4.60;4.00;;;;;;;;;;5116075;27;20536;-62
2021/06/09 06:13:53;;;;;;;7.67;3.80;;;;;;;;;;5145932;22;20488;-61
2021/06/09 06:16:21;;;;;;;4.00;3.60;;;;;;;;;;5095078;28;20818;-62
2021/06/09 06:18:48;;;;;;;9.90;7.83;;;;;;;;;;5095099;28;20861;-61
2021/06/09 06:21:15;;;;;;;5.73;4.30;;;;;;;;;;5094668;28;20954;-61
2021/06/09 06:23:42;;;;;;;5.50;3.67;;;;;;;;;;5094577;28;20840;-62
2021/06/09 06:26:11;;;;;;;4.67;3.77;;;;;;;;;;5095133;28;20566;-62
2021/06/09 06:28:39;;;;;;;5.77;3.43;;;;;;;;;;5094713;28;20507;-62
2021/06/09 06:31:10;;;;;;;4.00;3.43;;;;;;;;;;5094143;28;20488;-62
2021/06/09 06:33:38;;;;;;;4.50;3.20;;;;;;;;;;5095061;28;20464;-63
2021/06/09 06:36:05;;;;;;;5.50;3.70;;;;;;;;;;5094857;28;20452;-62
2021/06/09 06:38:36;;;;;;;4.30;3.30;;;;;;;;;;5094425;28;20464;-63
2021/06/09 06:41:03;;;;;;;3.83;3.20;;;;;;;;;;5094393;28;20905;-63
2021/06/09 06:43:31;;;;;;;4.10;3.03;;;;;;;;;;5094506;28;20469;-62
2021/06/09 06:45:58;;;;;;;7.97;4.00;;;;;;;;;;5094400;28;20490;-65
2021/06/09 06:48:25;;;;;;;4.30;3.90;;;;;;;;;;5094085;28;20451;-64
2021/06/09 06:50:52;;;;;;;4.13;3.73;;;;;;;;;;5094112;28;20441;-63
2021/06/09 06:53:19;;;;;;;7.07;3.60;;;;;;;;;;5093269;28;20471;-63
2021/06/09 06:55:46;;;;;;;4.70;3.67;;;;;;;;;;5094291;28;20448;-64
2021/06/09 06:58:13;;;;;;;4.77;3.17;;;;;;;;;;5094259;28;20438;-63
2021/06/09 07:00:41;;;;;;;4.10;3.30;;;;;;;;;;5093896;28;20445;-64
2021/06/09 07:03:09;;;;;;;3.50;3.20;;;;;;;;;;5093817;28;20465;-62
2021/06/09 07:05:36;;;;;;;4.97;3.70;;;;;;;;;;5093965;28;20452;-61
2021/06/09 07:08:04;;;;;;;6.70;3.40;;;;;;;;;;5093939;28;20619;-60
2021/06/09 07:10:31;;;;;;;4.30;3.50;;;;;;;;;;5093974;28;20441;-62
2021/06/09 07:13:01;;;;;;;5.80;3.90;;;;;;;;;;5094136;28;20477;-62
2021/06/09 07:15:28;;;;;;;4.33;3.30;;;;;;;;;;5093935;28;20921;-62
2021/06/09 07:17:57;;;;;;;4.67;4.00;;;;;;;;;;5093926;28;20448;-62
2021/06/09 07:20:25;;;;;;;5.63;3.87;;;;;;;;;;5094281;28;20455;-61
2021/06/09 07:22:52;;;;;;;3.97;3.57;;;;;;;;;;5094326;28;20948;-61
2021/06/09 07:25:20;;;;;;;6.73;4.70;;;;;;;;;;5093618;28;20939;-61
2021/06/09 07:27:49;;;;;;;4.40;4.00;;;;;;;;;;5093576;28;20485;-61
2021/06/09 07:30:16;;;;;;;5.10;4.20;;;;;;;;;;5094115;28;20442;-63
2021/06/09 07:32:44;;;;;;;9.00;3.90;;;;;;;;;;5093826;28;20998;-62
2021/06/09 07:35:13;;;;;;;4.10;3.53;;;;;;;;;;5093753;28;20453;-62
2021/06/09 07:37:42;;;;;;;4.10;3.70;;;;;;;;;;5093758;28;20443;-62
2021/06/09 07:40:12;;;;;;;5.00;4.43;;;;;;;;;;5093405;28;20457;-62
2021/06/09 07:42:41;;;;;;;4.70;3.73;;;;;;;;;;5093157;28;20969;-61
2021/06/09 07:45:09;;;;;;;5.60;4.10;;;;;;;;;;5093842;28;20472;-60
2021/06/09 07:47:36;;;;;;;4.60;3.50;;;;;;;;;;5093220;28;21018;-61
2021/06/09 07:50:05;;;;;;;5.90;4.00;;;;;;;;;;5093327;28;20442;-61
2021/06/09 07:52:35;;;;;;;4.80;3.70;;;;;;;;;;5093222;28;20512;-61
2021/06/09 07:55:02;;;;;;;5.40;4.17;;;;;;;;;;5093438;28;20507;-62
2021/06/09 07:57:32;;;;;;;4.70;3.43;;;;;;;;;;5093271;28;20596;-62
2021/06/09 07:59:59;;;;;;;7.30;4.33;;;;;;;;;;5093538;28;20451;-61
2021/06/09 08:02:26;;;;;;;4.43;4.03;;;;;;;;;;5093760;28;20443;-61
2021/06/09 08:04:54;;;;;;;4.47;4.07;;;;;;;;;;5093780;28;20467;-61
2021/06/09 08:07:20;;;;;;;7.20;4.00;;;;;;;;;;5093757;28;20505;-62
2021/06/09 08:09:49;;;;;;;4.50;4.17;;;;;;;;;;5093427;28;20443;-61
2021/06/09 08:12:17;;;;;;;5.03;4.00;;;;;;;;;;5093805;28;20449;-61
2021/06/09 08:14:44;;;;;;;6.67;4.20;;;;;;;;;;5093009;28;20480;-62
2021/06/09 08:17:10;;;;;;;5.73;4.37;;;;;;;;;;5092907;28;20449;-62
2021/06/09 08:19:37;;;;;;;5.10;4.60;;;;;;;;;;5092876;28;20516;-63
2021/06/09 08:22:04;;;;;;;11.03;4.87;;;;;;;;;;5092473;28;20453;-63
2021/06/09 08:24:31;;;;;;;5.17;4.67;;;;;;;;;;5092574;28;20463;-63
2021/06/09 08:27:03;;;;;;;4.47;4.07;;;;;;;;;;5092654;28;20477;-63
2021/06/09 08:29:30;;;;;;;7.30;4.87;;;;;;;;;;5092657;28;20499;-63
2021/06/09 08:31:56;;;;;;;6.00;4.90;;;;;;;;;;5093145;28;20438;-64
2021/06/09 08:34:23;;;;;;;5.57;4.90;;;;;;;;;;5093378;28;20465;-64
2021/06/09 08:36:51;;;;;;;6.63;4.97;;;;;;;;;;5092472;28;20443;-63
2021/06/09 08:39:21;;;;;;;8.37;6.10;;;;;;;;;;5092857;28;20487;-62
2021/06/09 08:41:48;;;;;;;6.30;5.73;;;;;;;;;;5092748;28;20822;-62
2021/06/09 08:44:16;;;;;;;6.70;6.07;;;;;;;;;;5092507;28;20469;-62
2021/06/09 08:46:43;;;;;;;7.80;5.80;;;;;;;;;;5092598;28;20484;-61
2021/06/09 08:49:10;;;;;;;9.43;6.13;;;;;;;;;;5092390;28;20448;-63
2021/06/09 08:51:37;;;;;;;6.00;5.33;;;;;;;;;;5092637;28;20498;-62
2021/06/09 08:54:05;;;;;;;6.63;6.03;;;;;;;;;;5094816;28;20464;-62
2021/06/09 08:56:32;;;;;;;7.83;6.10;;;;;;;;;;5096299;28;20572;-63
2021/06/09 08:58:59;;;;;;;7.30;6.60;;;;;;;;;;5096061;28;20456;-63
2021/06/09 09:01:31;;;;;;;7.40;6.80;;;;;;;;;;5096486;28;20818;-63
2021/06/09 09:03:57;;;;;;;6.43;5.83;;;;;;;;;;5096421;28;20458;-63
2021/06/09 09:06:24;;;;;;;7.27;6.57;;;;;;;;;;5097155;28;20516;-62
2021/06/09 09:08:53;;;;;;;7.23;6.57;;;;;;;;;;5098062;28;20463;-60
2021/06/09 09:11:19;;;;;;;7.23;6.13;;;;;;;;;;5097353;28;20449;-63
2021/06/09 09:13:46;;;;;;;7.67;6.97;;;;;;;;;;5097216;28;20553;-64
2021/06/09 09:16:13;;;;;;;7.10;6.40;;;;;;;;;;5098024;28;20439;-63
2021/06/09 09:18:43;;;;;;;7.50;6.80;;;;;;;;;;5097675;28;20452;-63
2021/06/09 09:21:12;;;;;;;7.30;6.70;;;;;;;;;;5098770;28;20453;-61
2021/06/09 09:23:46;;;;;;;7.63;6.93;;;;;;;;;;5098415;28;20472;-61
2021/06/09 09:26:24;;;;;;;7.60;6.90;;;;;;;;;;5098857;28;20434;-63
2021/06/09 09:28:50;;;;;;;7.67;6.87;;;;;;;;;;5098528;28;20437;-63
2021/06/09 09:31:18;;;;;;;6.70;6.13;;;;;;;;;;5097488;28;20933;-62
2021/06/09 09:33:47;;;;;;;8.00;7.40;;;;;;;;;;5095827;28;20466;-62
2021/06/09 09:36:21;;;;;;;7.60;7.00;;;;;;;;;;5096915;28;20447;-62
2021/06/09 09:38:48;;;;;;;8.73;7.93;;;;;;;;;;5096509;28;20472;-63
2021/06/09 09:41:16;;;;;;;7.83;7.07;;;;;;;;;;5097464;28;20453;-63
2021/06/09 09:43:44;;;;;;;6.80;6.27;;;;;;;;;;5097863;28;20462;-62
2021/06/09 09:46:11;;;;;;;8.23;7.53;;;;;;;;;;5096389;28;20810;-63
2021/06/09 09:48:40;;;;;;;8.43;7.73;;;;;;;;;;5096012;28;20470;-63
2021/06/09 09:51:09;;;;;;;7.87;7.13;;;;;;;;;;5096376;28;20479;-64
2021/06/09 09:53:35;;;;;;;8.97;7.60;;;;;;;;;;5095594;28;20462;-63
2021/06/09 09:56:04;;;;;;;8.53;7.83;;;;;;;;;;5095825;28;20548;-63
2021/06/09 09:58:32;;;;;;;9.57;8.77;;;;;;;;;;5095337;28;20447;-63
2021/06/09 10:01:09;;;;;;;8.83;8.13;;;;;;;;;;5094988;28;20497;-63
2021/06/09 10:03:37;;;;;;;9.37;8.43;;;;;;;;;;5094760;28;20460;-62
2021/06/09 10:06:17;;;;;;;8.00;7.27;;;;;;;;;;5094691;28;20986;-63
2021/06/09 10:08:44;;;;;;;8.20;7.60;;;;;;;;;;5094985;28;20464;-64
2021/06/09 10:11:12;;;;;;;8.53;7.80;;;;;;;;;;5095156;28;20805;-64
2021/06/09 10:13:38;;;;;;;8.47;7.60;;;;;;;;;;5095256;28;20506;-62
2021/06/09 10:16:21;;;;;;;8.30;7.50;;;;;;;;;;5094882;28;20457;-62
2021/06/09 10:18:55;;;;;;;10.27;8.30;;;;;;;;;;5094912;28;20479;-64
2021/06/09 10:21:23;;;;;;;9.47;8.67;;;;;;;;;;5094916;28;20791;-64
2021/06/09 10:23:50;;;;;;;10.27;9.27;;;;;;;;;;5095025;28;20472;-63
2021/06/09 10:26:17;;;;;;;8.57;7.97;;;;;;;;;;5094578;28;20552;-63
2021/06/09 10:28:57;;;;;;;8.00;7.40;;;;;;;;;;5094629;28;20484;-63
2021/06/09 10:31:24;;;;;;;8.33;7.63;;;;;;;;;;5093992;28;20940;-63
2021/06/09 10:33:51;;;;;;;9.30;8.47;;;;;;;;;;5094156;28;20468;-64
2021/06/09 10:36:18;;;;;;;8.43;7.63;;;;;;;;;;5093958;28;20538;-62
2021/06/09 10:38:48;;;;;;;8.70;8.00;;;;;;;;;;5093900;28;20442;-64
2021/06/09 10:41:15;;;;;;;8.37;7.77;;;;;;;;;;5094353;28;20894;-63
2021/06/09 10:43:43;;;;;;;8.60;7.90;;;;;;;;;;5094527;28;20465;-63
2021/06/09 10:46:11;;;;;;;7.80;7.20;;;;;;;;;;5094257;28;20452;-63
2021/06/09 10:48:41;;;;;;;7.83;7.13;;;;;;;;;;5093588;28;20478;-61
2021/06/09 10:51:09;;;;;;;8.17;7.43;;;;;;;;;;5093937;28;20534;-63
2021/06/09 10:53:37;;;;;;;8.10;7.60;;;;;;;;;;5094076;28;20548;-64
2021/06/09 10:56:05;;;;;;;7.87;7.27;;;;;;;;;;5093950;28;20482;-62
2021/06/09 10:58:32;;;;;;;9.17;8.37;;;;;;;;;;5094362;28;20449;-62
2021/06/09 11:01:00;;;;;;;8.73;7.87;;;;;;;;;;5093660;28;20933;-62
2021/06/09 11:03:27;;;;;;;8.80;7.90;;;;;;;;;;5094143;28;20536;-64
2021/06/09 11:05:54;;;;;;;9.40;8.70;;;;;;;;;;5093402;28;20498;-63
2021/06/09 11:08:21;;;;;;;8.33;7.50;;;;;;;;;;5093346;28;21008;-63
2021/06/09 11:10:49;;;;;;;8.77;7.97;;;;;;;;;;5093772;28;20454;-63
2021/06/09 11:13:31;;;;;;;8.37;7.70;;;;;;;;;;5093891;28;20853;-63
2021/06/09 11:16:05;;;;;;;10.03;8.93;;;;;;;;;;5093548;28;20442;-64
2021/06/09 11:18:35;;;;;;;8.00;7.40;;;;;;;;;;5093895;28;20451;-64
2021/06/09 11:21:02;;;;;;;9.10;8.20;;;;;;;;;;5093207;28;20515;-62
2021/06/09 11:23:30;;;;;;;8.93;8.03;;;;;;;;;;5092932;28;20478;-63
2021/06/09 11:25:58;;;;;;;8.20;7.40;;;;;;;;;;5093778;28;20496;-62
2021/06/09 11:28:39;;;;;;;9.00;8.20;;;;;;;;;;5093775;28;20473;-62
2021/06/09 11:31:07;;;;;;;8.37;7.67;;;;;;;;;;5094020;28;20898;-64
2021/06/09 11:33:38;;;;;;;9.03;8.23;;;;;;;;;;5093913;28;20926;-63
2021/06/09 11:36:06;;;;;;;8.33;7.53;;;;;;;;;;5095227;28;20494;-62
2021/06/09 11:38:33;;;;;;;8.73;8.10;;;;;;;;;;5094430;28;20665;-62
2021/06/09 11:41:02;;;;;;;8.20;7.40;;;;;;;;;;5093905;28;20443;-63
2021/06/09 11:43:29;;;;;;;8.37;7.60;;;;;;;;;;5093848;28;20459;-62
2021/06/09 11:46:01;;;;;;;8.10;7.40;;;;;;;;;;5093725;28;20992;-63
2021/06/09 11:48:29;;;;;;;9.20;8.27;;;;;;;;;;5093687;28;20474;-64
2021/06/09 11:50:57;;;;;;;8.57;7.87;;;;;;;;;;5093209;28;20522;-65
2021/06/09 11:53:40;;;;;;;8.60;7.83;;;;;;;;;;5092910;28;21049;-63
2021/06/09 11:56:14;;;;;;;8.43;7.70;;;;;;;;;;5093432;28;20529;-63
2021/06/09 11:58:42;;;;;;;7.83;7.20;;;;;;;;;;5093152;28;20507;-64
2021/06/09 12:01:10;;;;;;;7.73;7.13;;;;;;;;;;5092792;28;20475;-65
2021/06/09 12:03:39;;;;;;;8.20;7.40;;;;;;;;;;5092984;28;20464;-63
2021/06/09 12:06:13;;;;;;;8.60;7.80;;;;;;;;;;5096284;28;20447;-67
2021/06/09 12:08:40;;;;;;;9.73;7.93;;;;;;;;;;5107809;28;20471;-71
2021/06/09 12:11:06;;;;;;;8.23;7.53;;;;;;;;;;5107525;28;20531;-65
2021/06/09 12:13:33;;;;;;;9.00;8.30;;;;;;;;;;5107374;28;20498;-69
2021/06/09 12:16:07;;;;;;;8.57;7.37;;;;;;;;;;5107553;28;20458;-67
2021/06/09 12:18:35;;;;;;;12.63;10.60;;;;;;;;;;5127319;22;20445;-60
2021/06/09 12:21:03;;;;;;;12.70;11.27;;;;;;;;;;5093199;28;20433;-61
2021/06/09 12:23:30;;;;;;;13.53;12.20;;;;;;;;;;5093269;28;20444;-61
2021/06/09 12:25:57;;;;;;;14.00;12.63;;;;;;;;;;5093006;28;20453;-61
2021/06/09 12:28:24;;;;;;;15.00;13.60;;;;;;;;;;5093872;28;20483;-62
2021/06/09 12:30:55;;;;;;;13.40;12.40;;;;;;;;;;5097396;28;20444;-62
2021/06/09 12:33:33;;;;;;;14.97;13.70;;;;;;;;;;5097866;28;20438;-63
2021/06/09 12:36:01;;;;;;;14.60;13.30;;;;;;;;;;5098497;28;20457;-62
2021/06/09 12:38:29;;;;;;;13.70;12.60;;;;;;;;;;5096709;28;20444;-61
2021/06/09 12:40:56;;;;;;;13.70;12.50;;;;;;;;;;5098349;28;20851;-63
2021/06/09 12:43:24;;;;;;;15.33;13.93;;;;;;;;;;5097658;28;20454;-63
2021/06/09 12:45:51;;;;;;;13.53;12.43;;;;;;;;;;5097823;28;20443;-62
2021/06/09 12:48:18;;;;;;;13.93;12.83;;;;;;;;;;5096754;28;20563;-63
2021/06/09 12:50:46;;;;;;;13.10;11.87;;;;;;;;;;5097761;28;21003;-61
2021/06/09 12:53:15;;;;;;;12.43;11.33;;;;;;;;;;5097200;28;20479;-63
2021/06/09 12:55:43;;;;;;;13.73;12.43;;;;;;;;;;5096884;28;20455;-63
2021/06/09 12:58:10;;;;;;;11.90;10.90;;;;;;;;;;5096994;28;20434;-62
2021/06/09 13:00:39;;;;;;;11.60;10.70;;;;;;;;;;5096830;28;20452;-62
2021/06/09 13:03:22;;;;;;;11.33;10.40;;;;;;;;;;5097226;28;20454;-63
2021/06/09 13:06:04;;;;;;;12.73;11.47;;;;;;;;;;5096478;28;20589;-63
2021/06/09 13:08:33;;;;;;;12.60;11.60;;;;;;;;;;5097014;28;20475;-63
2021/06/09 13:11:05;;;;;;;13.37;12.10;;;;;;;;;;5095737;28;20955;-62
2021/06/09 13:13:32;;;;;;;12.13;10.80;;;;;;;;;;5096446;28;20443;-63
2021/06/09 13:16:00;;;;;;;12.60;11.40;;;;;;;;;;5095730;28;20526;-63
2021/06/09 13:18:37;;;;;;;12.90;11.80;;;;;;;;;;5095835;28;20830;-63
2021/06/09 13:21:18;;;;;;;12.20;10.70;;;;;;;;;;5096558;28;20433;-62
2021/06/09 13:23:46;;;;;;;11.33;10.27;;;;;;;;;;5096555;28;20432;-63
2021/06/09 13:26:14;;;;;;;12.77;11.70;;;;;;;;;;5096623;28;20442;-64
2021/06/09 13:28:41;;;;;;;13.00;12.00;;;;;;;;;;5096430;28;20571;-63
2021/06/09 13:31:08;;;;;;;11.03;10.10;;;;;;;;;;5096208;28;20788;-63
2021/06/09 13:33:35;;;;;;;11.63;10.63;;;;;;;;;;5096243;28;20443;-63
2021/06/09 13:36:02;;;;;;;11.60;10.70;;;;;;;;;;5096381;28;20821;-63
2021/06/09 13:38:29;;;;;;;11.73;10.63;;;;;;;;;;5095424;28;20940;-63
2021/06/09 13:40:58;;;;;;;12.43;11.43;;;;;;;;;;5095807;28;20446;-63
2021/06/09 13:43:28;;;;;;;10.50;9.50;;;;;;;;;;5095574;28;20544;-63
2021/06/09 13:45:57;;;;;;;10.33;9.47;;;;;;;;;;5095949;28;20509;-63
2021/06/09 13:48:25;;;;;;;10.10;9.20;;;;;;;;;;5095390;28;20478;-62
2021/06/09 13:50:57;;;;;;;11.50;10.30;;;;;;;;;;5094975;28;20921;-63
2021/06/09 13:53:24;;;;;;;9.97;9.20;;;;;;;;;;5095233;28;20461;-63
2021/06/09 13:55:51;;;;;;;10.67;9.77;;;;;;;;;;5095263;28;20449;-63
2021/06/09 13:58:20;;;;;;;10.43;9.63;;;;;;;;;;5094821;28;20441;-63
2021/06/09 14:00:47;;;;;;;10.67;9.73;;;;;;;;;;5095158;28;20452;-63
2021/06/09 14:03:15;;;;;;;10.03;9.33;;;;;;;;;;5094774;28;20471;-63
2021/06/09 14:05:42;;;;;;;11.43;10.43;;;;;;;;;;5095215;28;20445;-63
2021/06/09 14:08:10;;;;;;;9.90;9.10;;;;;;;;;;5095236;28;20477;-63
2021/06/09 14:10:38;;;;;;;9.40;8.70;;;;;;;;;;5095075;28;20462;-62
2021/06/09 14:13:12;;;;;;;11.00;10.10;;;;;;;;;;5094958;28;20824;-63
2021/06/09 14:15:41;;;;;;;10.70;9.90;;;;;;;;;;5095266;28;20431;-64
2021/06/09 14:18:09;;;;;;;10.50;9.60;;;;;;;;;;5094843;28;20542;-62
2021/06/09 14:20:38;;;;;;;11.00;10.07;;;;;;;;;;5094723;28;20485;-62
2021/06/09 14:23:06;;;;;;;10.50;9.70;;;;;;;;;;5094721;28;20487;-61
2021/06/09 14:25:33;;;;;;;12.27;11.17;;;;;;;;;;5094796;28;20452;-65
2021/06/09 14:28:02;;;;;;;10.13;9.33;;;;;;;;;;5094773;28;20493;-64
2021/06/09 14:30:31;;;;;;;10.50;9.60;;;;;;;;;;5094413;28;21016;-63
2021/06/09 14:33:17;;;;;;;10.63;9.83;;;;;;;;;;5094508;28;20459;-62
2021/06/09 14:35:59;;;;;;;10.70;9.90;;;;;;;;;;5094761;28;20495;-64
2021/06/09 14:38:26;;;;;;;12.40;11.30;;;;;;;;;;5094696;28;20463;-63
2021/06/09 14:40:54;;;;;;;11.13;9.93;;;;;;;;;;5094402;28;20452;-63
2021/06/09 14:43:23;;;;;;;11.97;10.67;;;;;;;;;;5094083;28;20448;-62
2021/06/09 14:45:50;;;;;;;10.50;9.57;;;;;;;;;;5094507;28;20448;-61
2021/06/09 14:48:35;;;;;;;11.13;10.23;;;;;;;;;;5093862;28;20589;-60